Time;durP1;ratioP1;P1;durP2;ratioP2;P2;SDS_P1;SDS_P2;PMS_P1;PMS_P2;Temp;Humidity;BMP_temperature;BMP_pressure;BME280_temperature;BME280_humidity;BME280_pressure;Samples;Min_cycle;Max_cycle;Signal;HPM_P1;HPM_P2
2021/10/30 00:00:55;;;;;;;79.30;43.10;;;;;;;6.79;60.83;99292.84;235851;1195;141210;-58
2021/10/30 00:05:58;;;;;;;86.50;45.40;;;;;;;6.78;60.66;99292.17;236140;1194;139134;-60
2021/10/30 00:11:01;;;;;;;85.10;45.30;;;;;;;6.78;60.68;99294.08;236261;1195;140820;-60
2021/10/30 00:16:04;;;;;;;85.80;46.40;;;;;;;6.77;60.90;99296.62;235796;1189;138756;-60
2021/10/30 00:21:07;;;;;;;82.60;45.60;;;;;;;6.73;60.90;99291.83;235913;1195;139472;-62
2021/10/30 00:26:13;;;;;;;86.80;45.10;;;;;;;6.67;60.69;99288.58;235851;1196;138478;-62
2021/10/30 00:31:16;;;;;;;95.40;47.40;;;;;;;6.62;60.81;99293.52;235903;1195;139279;-61
2021/10/30 00:36:20;;;;;;;85.50;47.00;;;;;;;6.59;60.89;99286.98;236161;1195;139301;-65
2021/10/30 00:41:23;;;;;;;76.80;44.60;;;;;;;6.55;61.00;99288.54;236228;1195;138532;-64
2021/10/30 00:46:26;;;;;;;84.60;45.20;;;;;;;6.51;61.02;99284.47;235233;1196;139576;-62
2021/10/30 00:51:30;;;;;;;85.80;46.40;;;;;;;6.46;61.01;99283.83;235446;1196;138556;-58
2021/10/30 00:56:35;;;;;;;78.50;43.50;;;;;;;6.40;61.19;99279.11;236114;1195;138721;-62
2021/10/30 01:01:40;;;;;;;83.00;43.80;;;;;;;6.41;61.38;99279.97;235962;1196;231455;-59
2021/10/30 01:06:46;;;;;;;77.80;42.60;;;;;;;6.46;61.42;99267.58;235857;1196;138816;-60
2021/10/30 01:11:52;;;;;;;81.90;43.20;;;;;;;6.52;61.41;99269.80;236123;1195;138700;-60
2021/10/30 01:16:56;;;;;;;;;;;;;;;6.54;61.46;99262.51;236342;1195;139435;-57
2021/10/30 01:22:00;;;;;;;75.90;42.40;;;;;;;6.50;61.25;99260.73;236266;1195;124655;-59
2021/10/30 01:27:04;;;;;;;83.60;43.20;;;;;;;6.45;61.50;99256.52;236082;1195;139210;-60
2021/10/30 01:32:07;;;;;;;77.20;41.90;;;;;;;6.45;61.42;99248.61;235463;1196;138817;-60
2021/10/30 01:37:11;;;;;;;69.50;39.60;;;;;;;6.47;61.54;99246.95;236035;1195;138981;-59
2021/10/30 01:42:14;;;;;;;70.70;39.70;;;;;;;6.41;61.52;99241.17;235566;1195;139505;-62
2021/10/30 01:47:17;;;;;;;75.40;40.90;;;;;;;6.36;61.66;99244.55;236348;1195;141880;-62
2021/10/30 01:52:20;;;;;;;79.40;41.50;;;;;;;6.31;61.67;99244.62;235860;1195;138807;-60
2021/10/30 01:57:23;;;;;;;75.90;42.10;;;;;;;6.28;61.76;99242.95;235918;1196;139004;-59
2021/10/30 02:02:26;;;;;;;73.70;42.10;;;;;;;6.25;61.65;99232.33;235844;1195;138578;-58
2021/10/30 02:07:30;;;;;;;74.50;39.50;;;;;;;6.22;61.80;99226.14;236098;1195;138993;-58
2021/10/30 02:12:33;;;;;;;73.30;40.10;;;;;;;6.14;61.73;99223.08;236034;1196;138868;-61
2021/10/30 02:17:37;;;;;;;67.40;36.00;;;;;;;6.06;61.35;99226.59;235917;1195;138643;-59
2021/10/30 02:22:41;;;;;;;70.90;37.90;;;;;;;5.99;61.48;99227.25;235556;1195;138465;-61
2021/10/30 02:27:54;;;;;;;72.40;38.20;;;;;;;6.00;61.58;99227.73;235329;1196;139217;-59
2021/10/30 02:32:57;;;;;;;66.90;37.50;;;;;;;6.07;61.87;99220.23;236049;1195;138835;-57
2021/10/30 02:38:00;;;;;;;63.70;36.80;;;;;;;6.22;62.19;99220.51;236071;1194;138433;-59
2021/10/30 02:43:03;;;;;;;68.40;36.00;;;;;;;6.29;62.09;99227.76;236228;1194;138962;-65
2021/10/30 02:48:06;;;;;;;62.70;35.80;;;;;;;6.33;61.73;99230.59;236234;1194;138677;-62
2021/10/30 02:53:11;;;;;;;63.60;34.10;;;;;;;6.32;61.88;99228.17;236185;1194;138332;-60
2021/10/30 02:58:14;;;;;;;62.80;35.00;;;;;;;6.25;61.70;99224.58;236070;1189;138764;-60
2021/10/30 03:03:17;;;;;;;63.80;34.90;;;;;;;6.21;61.72;99225.83;235934;1194;138736;-61
2021/10/30 03:08:20;;;;;;;61.10;34.00;;;;;;;6.15;61.76;99222.33;236077;1195;138256;-58
2021/10/30 03:13:23;;;;;;;61.70;34.10;;;;;;;6.08;61.67;99220.69;235927;1195;138549;-59
2021/10/30 03:18:26;;;;;;;65.70;35.00;;;;;;;6.01;61.83;99220.61;235748;1196;138635;-61
2021/10/30 03:23:30;;;;;;;65.80;35.90;;;;;;;5.93;61.59;99215.31;235638;1195;138515;-61
2021/10/30 03:28:33;;;;;;;519.70;353.00;;;;;;;5.85;61.69;99214.72;236212;1195;138597;-59
2021/10/30 03:33:36;;;;;;;79.60;44.70;;;;;;;5.91;61.85;99210.27;236105;1195;139660;-60
2021/10/30 03:38:39;;;;;;;67.40;37.10;;;;;;;5.92;62.06;99212.16;235862;1195;138539;-61
2021/10/30 03:43:43;;;;;;;61.80;34.70;;;;;;;6.00;61.77;99211.35;236095;1195;139023;-58
2021/10/30 03:48:46;;;;;;;66.70;36.00;;;;;;;5.99;61.72;99217.00;235907;1196;140035;-61
2021/10/30 03:53:49;;;;;;;66.10;35.90;;;;;;;5.96;61.61;99215.21;235106;1195;138483;-59
2021/10/30 03:58:52;;;;;;;61.40;34.50;;;;;;;5.88;61.54;99218.65;235573;1195;138573;-59
2021/10/30 04:03:56;;;;;;;61.40;34.00;;;;;;;5.81;61.70;99216.29;236143;1195;138970;-63
2021/10/30 04:08:58;;;;;;;60.20;32.90;;;;;;;5.79;61.93;99203.72;236087;1195;139076;-60
2021/10/30 04:14:02;;;;;;;53.70;30.10;;;;;;;5.77;62.06;99202.02;235970;1195;139252;-60
2021/10/30 04:19:05;;;;;;;81.60;46.10;;;;;;;5.78;62.20;99192.31;236049;1195;139155;-61
2021/10/30 04:24:08;;;;;;;96.20;52.50;;;;;;;5.86;62.62;99192.32;235884;1195;138260;-61
2021/10/30 04:29:12;;;;;;;50.50;28.90;;;;;;;5.92;62.64;99187.34;236133;1195;138972;-62
2021/10/30 04:34:18;;;;;;;52.10;28.30;;;;;;;5.96;62.27;99187.60;235911;1194;139580;-60
2021/10/30 04:39:21;;;;;;;62.40;28.90;;;;;;;5.98;62.63;99181.66;235516;1196;139580;-61
2021/10/30 04:44:24;;;;;;;50.40;28.00;;;;;;;5.95;62.30;99176.34;235587;1196;139406;-60
2021/10/30 04:49:27;;;;;;;61.90;30.30;;;;;;;5.89;62.27;99175.10;236016;1195;139155;-60
2021/10/30 04:54:30;;;;;;;55.50;29.90;;;;;;;5.88;62.26;99173.95;236167;1194;139079;-60
2021/10/30 04:59:34;;;;;;;55.50;31.30;;;;;;;5.88;62.23;99166.90;236098;1196;140714;-61
2021/10/30 05:04:37;;;;;;;60.20;31.40;;;;;;;5.86;62.13;99165.73;236390;1195;139988;-61
2021/10/30 05:09:41;;;;;;;49.30;27.70;;;;;;;5.82;62.01;99164.14;235749;1195;139147;-61
2021/10/30 05:14:43;;;;;;;49.00;28.30;;;;;;;5.80;62.20;99164.92;235817;1195;140436;-63
2021/10/30 05:19:47;;;;;;;47.70;26.10;;;;;;;5.80;62.15;99163.36;235731;1196;138849;-62
2021/10/30 05:24:50;;;;;;;43.50;24.20;;;;;;;5.84;62.34;99165.46;235739;1196;139220;-62
2021/10/30 05:29:53;;;;;;;40.30;22.90;;;;;;;5.90;62.64;99158.54;236247;1195;138654;-61
2021/10/30 05:34:56;;;;;;;40.90;23.60;;;;;;;5.94;62.56;99154.35;235920;1196;139009;-61
2021/10/30 05:40:28;;;;;;;43.10;22.80;;;;;;;6.01;62.68;99155.48;235767;1195;138616;-62
2021/10/30 05:45:32;;;;;;;49.30;24.90;;;;;;;6.05;62.47;99156.04;236138;1195;139647;-61
2021/10/30 05:50:35;;;;;;;50.40;27.50;;;;;;;6.05;62.33;99155.30;235407;1195;138400;-66
2021/10/30 05:55:38;;;;;;;49.30;27.80;;;;;;;5.98;61.80;99152.45;236145;1195;138476;-59
2021/10/30 06:00:42;;;;;;;54.00;29.40;;;;;;;5.88;61.90;99157.38;235679;1196;139035;-60
2021/10/30 06:05:45;;;;;;;48.30;29.20;;;;;;;5.79;61.82;99163.03;236075;1196;138314;-60
2021/10/30 06:10:48;;;;;;;53.50;28.80;;;;;;;5.75;61.81;99160.55;236369;1195;139441;-58
2021/10/30 06:15:51;;;;;;;53.30;29.40;;;;;;;5.70;61.96;99162.13;236013;1195;138566;-60
2021/10/30 06:20:54;;;;;;;57.60;32.10;;;;;;;5.71;61.85;99161.61;235817;1196;138710;-61
2021/10/30 06:25:58;;;;;;;55.40;29.30;;;;;;;5.76;62.08;99163.17;236279;1195;138570;-61
2021/10/30 06:31:01;;;;;;;54.50;30.70;;;;;;;5.82;62.08;99169.98;236245;1194;140102;-61
2021/10/30 06:36:04;;;;;;;54.80;29.70;;;;;;;5.87;62.21;99175.54;235835;1195;138711;-60
2021/10/30 06:41:08;;;;;;;54.00;29.20;;;;;;;5.96;62.30;99175.75;236153;1195;138305;-58
2021/10/30 06:46:32;;;;;;;52.90;29.30;;;;;;;6.09;62.31;99182.62;236190;1195;139072;-59
2021/10/30 06:51:35;;;;;;;50.50;27.90;;;;;;;6.21;62.59;99182.80;235870;1196;139253;-61
2021/10/30 06:56:40;;;;;;;47.30;26.80;;;;;;;6.34;62.57;99185.44;235787;1195;139282;-59
2021/10/30 07:01:44;;;;;;;49.10;27.70;;;;;;;6.48;62.87;99185.92;235193;1196;138286;-61
2021/10/30 07:06:47;;;;;;;48.00;25.90;;;;;;;6.62;62.78;99178.60;235343;1196;139081;-59
2021/10/30 07:11:50;;;;;;;49.70;25.70;;;;;;;6.80;63.00;99178.70;235397;1196;140272;-60
2021/10/30 07:17:14;;;;;;;38.60;22.50;;;;;;;6.99;63.07;99179.61;236151;1195;139334;-61
2021/10/30 07:22:17;;;;;;;37.70;20.70;;;;;;;7.19;63.05;99181.70;235882;1196;138571;-60
2021/10/30 07:27:21;;;;;;;37.50;21.10;;;;;;;7.43;62.95;99182.54;235982;1194;138283;-59
2021/10/30 07:32:24;;;;;;;36.00;21.50;;;;;;;7.66;62.90;99188.84;236165;1195;138385;-61
2021/10/30 07:37:27;;;;;;;37.60;20.40;;;;;;;7.88;62.90;99189.35;236012;1195;138879;-59
2021/10/30 07:42:31;;;;;;;36.60;20.20;;;;;;;8.12;62.66;99186.45;236114;1196;139019;-61
2021/10/30 07:47:35;;;;;;;38.60;19.80;;;;;;;8.34;62.36;99178.08;236191;1196;138399;-60
2021/10/30 07:52:37;;;;;;;34.80;19.60;;;;;;;8.53;62.07;99182.08;235911;1195;138947;-60
2021/10/30 07:57:43;;;;;;;32.10;18.40;;;;;;;8.74;62.11;99180.31;235968;1195;138471;-66
2021/10/30 08:02:48;;;;;;;28.60;17.10;;;;;;;8.96;62.00;99182.69;235923;1196;138370;-61
2021/10/30 08:07:57;;;;;;;29.90;17.90;;;;;;;9.16;61.55;99176.80;235810;1196;138445;-61
2021/10/30 08:13:15;;;;;;;29.60;17.70;;;;;;;9.38;61.30;99185.56;235801;1195;139498;-59
2021/10/30 08:18:23;;;;;;;34.10;17.60;;;;;;;9.58;61.38;99181.42;236007;1195;138572;-58
2021/10/30 08:23:33;;;;;;;26.90;16.30;;;;;;;9.77;61.05;99167.42;235514;1196;138811;-61
2021/10/30 08:28:36;;;;;;;28.10;16.90;;;;;;;9.96;60.77;99172.94;236166;1195;139347;-63
2021/10/30 08:33:39;;;;;;;26.10;15.30;;;;;;;10.13;60.21;99176.52;235448;1196;138696;-61
2021/10/30 08:38:44;;;;;;;26.40;16.80;;;;;;;10.31;60.14;99175.12;235608;1196;138921;-60
2021/10/30 08:43:51;;;;;;;30.70;16.70;;;;;;;10.49;60.52;99175.16;236108;1195;138590;-61
2021/10/30 08:48:54;;;;;;;26.70;14.40;;;;;;;10.68;60.36;99172.42;235851;1196;139680;-61
2021/10/30 08:53:57;;;;;;;28.80;14.60;;;;;;;10.86;60.28;99178.98;236233;1195;138670;-62
2021/10/30 08:59:01;;;;;;;30.30;13.90;;;;;;;11.03;59.70;99170.95;236163;1195;139161;-60
2021/10/30 09:04:04;;;;;;;23.20;12.10;;;;;;;11.21;59.78;99161.55;236084;1195;138614;-65
2021/10/30 09:09:16;;;;;;;22.30;12.10;;;;;;;11.40;59.26;99164.05;235860;1196;139188;-61
2021/10/30 09:14:21;;;;;;;25.00;12.70;;;;;;;11.60;59.30;99163.50;235804;1196;139179;-64
2021/10/30 09:19:30;;;;;;;22.10;12.40;;;;;;;11.77;59.11;99155.45;235883;1195;139149;-62
2021/10/30 09:24:50;;;;;;;28.40;13.40;;;;;;;11.92;58.89;99152.05;235364;1195;140838;-64
2021/10/30 09:29:56;;;;;;;23.20;14.10;;;;;;;12.11;58.37;99156.84;235844;1196;139288;-61
2021/10/30 09:34:59;;;;;;;27.30;14.00;;;;;;;12.26;58.20;99152.77;236251;1195;139241;-60
2021/10/30 09:40:19;;;;;;;25.60;14.30;;;;;;;12.38;58.28;99149.50;236146;1195;139325;-60
2021/10/30 09:45:26;;;;;;;29.90;14.30;;;;;;;12.54;57.71;99152.81;236066;1195;139148;-61
2021/10/30 09:50:33;;;;;;;26.20;13.50;;;;;;;12.68;57.41;99143.50;236188;1195;140849;-62
2021/10/30 09:55:36;;;;;;;21.10;11.10;;;;;;;12.81;57.20;99140.82;236001;1195;139277;-60
2021/10/30 10:00:40;;;;;;;18.00;10.10;;;;;;;12.97;57.00;99135.64;236208;1195;139402;-65
2021/10/30 10:05:43;;;;;;;20.70;10.20;;;;;;;13.13;56.72;99129.19;236176;1195;140247;-60
2021/10/30 10:10:46;;;;;;;18.90;9.60;;;;;;;13.33;56.78;99129.54;236143;1195;139899;-61
2021/10/30 10:15:51;;;;;;;19.30;9.40;;;;;;;13.56;56.37;99123.98;235541;1196;139857;-60
2021/10/30 10:20:55;;;;;;;469.50;327.90;;;;;;;13.82;55.78;99118.86;235133;1196;139078;-60
2021/10/30 10:25:59;;;;;;;61.40;40.50;;;;;;;14.43;58.81;99111.02;236138;1195;139521;-59
2021/10/30 10:31:10;;;;;;;41.10;25.00;;;;;;;15.73;60.98;99101.42;236186;1195;138902;-60
2021/10/30 10:36:13;;;;;;;31.00;17.50;;;;;;;16.78;59.68;99094.55;236300;1195;139987;-62
2021/10/30 10:41:42;;;;;;;21.60;12.70;;;;;;;17.45;57.91;99089.92;236503;1194;139278;-64
2021/10/30 10:46:51;;;;;;;30.60;20.00;;;;;;;17.83;56.03;99078.92;235965;1195;138543;-60
2021/10/30 10:52:35;;;;;;;66.90;45.80;;;;;;;18.14;55.66;99070.69;236186;1195;139314;-63
2021/10/30 10:57:30;;;;;;;52.60;34.50;;;;;;;18.60;55.48;99061.69;236291;1195;139447;-59
2021/10/30 11:02:36;;;;;;;39.00;23.50;;;;;;;18.88;54.46;99056.21;236557;1195;139949;-60
2021/10/30 11:07:51;;;;;;;50.30;23.50;;;;;;;18.87;53.22;99054.88;236291;1195;139390;-59
2021/10/30 11:13:04;;;;;;;110.60;51.70;;;;;;;18.98;53.45;99052.54;236301;1195;140952;-58
2021/10/30 11:18:18;;;;;;;42.10;21.50;;;;;;;19.12;53.23;99043.77;236328;1195;141067;-60
2021/10/30 11:23:28;;;;;;;47.10;24.20;;;;;;;19.26;52.49;99043.88;236292;1196;139370;-58
2021/10/30 11:28:33;;;;;;;37.70;21.00;;;;;;;19.39;51.84;99044.98;235625;1195;140030;-58
2021/10/30 11:33:36;;;;;;;31.30;17.20;;;;;;;19.35;50.87;99035.23;235589;1196;139971;-60
2021/10/30 11:38:51;;;;;;;15.00;9.00;;;;;;;19.25;50.38;99026.67;236086;1195;138901;-58
2021/10/30 11:43:59;;;;;;;23.80;14.00;;;;;;;19.25;50.14;99022.21;236098;1195;139552;-58
2021/10/30 11:49:02;;;;;;;23.70;12.40;;;;;;;19.39;50.46;99017.25;236282;1195;139138;-58
2021/10/30 11:54:07;;;;;;;18.00;10.40;;;;;;;19.54;50.37;99013.55;236029;1195;139497;-58
2021/10/30 11:59:10;;;;;;;18.50;10.70;;;;;;;19.64;49.70;99002.77;235553;1195;139001;-59
2021/10/30 12:04:35;;;;;;;19.70;9.90;;;;;;;19.64;49.51;99003.40;235964;1195;139097;-59
2021/10/30 12:09:48;;;;;;;13.50;7.90;;;;;;;19.60;49.41;98998.55;235626;1195;139157;-57
2021/10/30 12:14:57;;;;;;;7.70;5.30;;;;;;;19.59;49.63;98989.35;236047;1195;138925;-58
2021/10/30 12:20:09;;;;;;;7.50;4.90;;;;;;;19.52;48.29;98984.99;235572;1196;138781;-58
2021/10/30 12:25:25;;;;;;;14.10;6.80;;;;;;;19.39;47.46;98978.16;235650;1195;138922;-59
2021/10/30 12:30:32;;;;;;;20.30;7.60;;;;;;;19.31;47.27;98975.36;236347;1195;139448;-60
2021/10/30 12:35:42;;;;;;;13.90;7.30;;;;;;;19.25;46.74;98978.34;236216;1194;138678;-58
2021/10/30 12:40:47;;;;;;;14.40;6.90;;;;;;;19.21;46.56;98974.98;235340;1194;139542;-59
2021/10/30 12:45:52;;;;;;;12.90;5.50;;;;;;;19.20;46.59;98976.29;235765;1195;139738;-59
2021/10/30 12:51:00;;;;;;;7.50;4.80;;;;;;;19.23;46.34;98970.48;236191;1195;138661;-60
2021/10/30 12:56:13;;;;;;;10.50;5.70;;;;;;;19.23;46.05;98965.95;235961;1195;138464;-59
2021/10/30 13:01:23;;;;;;;6.40;4.60;;;;;;;19.26;46.73;98964.39;235723;1195;140037;-60
2021/10/30 13:06:29;;;;;;;8.20;4.60;;;;;;;19.29;46.00;98962.23;235429;1195;138711;-60
2021/10/30 13:11:33;;;;;;;11.40;4.90;;;;;;;19.39;45.88;98965.98;236458;1195;140197;-59
2021/10/30 13:16:36;;;;;;;11.50;8.30;;;;;;;19.50;46.44;98959.95;236273;1195;139236;-60
2021/10/30 13:21:40;;;;;;;90.40;11.90;;;;;;;19.60;47.41;98958.96;236233;1195;138505;-60
2021/10/30 13:26:43;;;;;;;174.10;21.20;;;;;;;19.61;46.55;98961.77;236357;1195;138796;-61
2021/10/30 13:31:47;;;;;;;88.70;12.50;;;;;;;19.61;46.82;98966.58;236242;1195;139456;-59
2021/10/30 13:36:50;;;;;;;17.60;6.30;;;;;;;19.70;46.73;98959.83;236128;1195;139415;-60
2021/10/30 13:41:53;;;;;;;13.60;5.20;;;;;;;19.66;45.53;98957.92;236390;1195;140866;-60
2021/10/30 13:46:56;;;;;;;8.70;4.70;;;;;;;19.59;45.06;98956.86;236351;1195;139515;-60
2021/10/30 13:51:59;;;;;;;8.40;5.50;;;;;;;19.55;44.81;98959.14;236137;1195;139034;-60
2021/10/30 13:57:02;;;;;;;11.20;4.90;;;;;;;19.57;44.42;98956.00;235995;1195;138853;-62
2021/10/30 14:02:13;;;;;;;9.90;5.30;;;;;;;19.54;43.99;98956.74;236082;1195;138896;-60
2021/10/30 14:07:16;;;;;;;12.00;5.30;;;;;;;19.56;43.81;98954.89;235943;1195;138698;-58
2021/10/30 14:12:19;;;;;;;10.70;7.30;;;;;;;19.53;43.68;98958.83;235630;1195;139028;-60
2021/10/30 14:17:22;;;;;;;10.40;5.10;;;;;;;19.52;43.27;98956.21;235854;1195;138830;-60
2021/10/30 14:22:25;;;;;;;10.10;5.20;;;;;;;19.50;42.92;98954.59;236304;1195;139297;-60
2021/10/30 14:27:28;;;;;;;11.60;5.70;;;;;;;19.47;42.84;98955.02;236057;1193;138972;-59
2021/10/30 14:32:32;;;;;;;49.30;6.80;;;;;;;19.49;42.88;98954.73;236216;1195;139368;-56
2021/10/30 14:37:36;;;;;;;43.00;6.10;;;;;;;19.49;42.88;98948.36;236180;1195;139304;-59
2021/10/30 14:42:39;;;;;;;29.30;6.30;;;;;;;19.53;43.17;98947.50;236311;1195;139079;-61
2021/10/30 14:47:42;;;;;;;16.00;5.70;;;;;;;19.62;42.94;98942.20;236053;1195;139524;-59
2021/10/30 14:52:45;;;;;;;10.70;5.90;;;;;;;19.56;42.47;98942.11;236318;1195;139138;-60
2021/10/30 14:57:50;;;;;;;16.40;5.40;;;;;;;19.46;42.38;98944.89;236319;1195;139542;-60
2021/10/30 15:02:53;;;;;;;29.40;12.60;;;;;;;19.45;42.46;98936.61;235956;1195;138611;-59
2021/10/30 15:07:57;;;;;;;13.40;6.40;;;;;;;19.44;42.25;98942.14;235570;1195;138920;-60
2021/10/30 15:13:00;;;;;;;15.00;5.40;;;;;;;19.44;42.11;98933.10;236100;1194;139730;-58
2021/10/30 15:18:05;;;;;;;17.90;6.10;;;;;;;19.45;42.24;98935.16;235245;1195;138474;-60
2021/10/30 15:23:08;;;;;;;15.30;6.80;;;;;;;19.36;41.94;98935.85;236414;1194;138881;-61
2021/10/30 15:28:11;;;;;;;11.10;5.80;;;;;;;19.17;41.93;98934.17;236074;1195;138896;-58
2021/10/30 15:33:15;;;;;;;14.30;6.30;;;;;;;19.05;42.47;98925.05;236363;1195;138962;-57
2021/10/30 15:38:18;;;;;;;14.40;6.20;;;;;;;19.05;42.95;98920.02;236167;1195;141234;-58
2021/10/30 15:43:21;;;;;;;19.30;6.10;;;;;;;19.09;43.01;98926.50;235875;1195;138998;-59
2021/10/30 15:48:24;;;;;;;22.20;6.50;;;;;;;19.01;42.98;98929.45;236105;1195;139169;-59
2021/10/30 15:53:27;;;;;;;16.50;6.20;;;;;;;18.87;42.67;98930.98;236398;1195;138696;-57
2021/10/30 15:58:31;;;;;;;16.80;7.20;;;;;;;18.69;42.77;98936.84;236254;1194;140400;-58
2021/10/30 16:03:34;;;;;;;22.70;8.20;;;;;;;18.53;42.90;98937.69;236329;1195;138834;-58
2021/10/30 16:08:37;;;;;;;29.80;8.20;;;;;;;18.42;43.08;98940.91;236153;1194;139028;-57
2021/10/30 16:13:40;;;;;;;27.80;8.10;;;;;;;18.38;43.34;98937.92;236131;1195;139471;-60
2021/10/30 16:18:45;;;;;;;17.60;7.90;;;;;;;18.48;43.74;98933.45;236281;1195;138819;-58
2021/10/30 16:23:48;;;;;;;17.00;7.90;;;;;;;18.52;43.27;98936.56;236227;1189;139306;-58
2021/10/30 16:28:51;;;;;;;24.50;8.30;;;;;;;18.56;43.58;98941.23;236277;1195;139608;-58
2021/10/30 16:33:54;;;;;;;27.90;8.70;;;;;;;18.66;43.67;98943.77;235845;1195;233314;-59
2021/10/30 16:38:57;;;;;;;24.10;8.90;;;;;;;18.82;44.20;98946.55;235791;1195;138964;-58
2021/10/30 16:44:03;;;;;;;20.70;7.70;;;;;;;19.00;44.18;98945.95;236153;1195;139139;-62
2021/10/30 16:49:07;;;;;;;;;;;;;;;19.15;43.67;98939.02;236353;1194;139314;-58
2021/10/30 16:54:10;;;;;;;19.60;11.30;;;;;;;18.92;42.27;98946.73;236491;1194;125279;-59
2021/10/30 16:59:13;;;;;;;21.20;10.40;;;;;;;18.47;41.74;98945.98;236508;1194;139214;-58
2021/10/30 17:04:16;;;;;;;25.30;11.70;;;;;;;17.93;41.56;98954.22;236250;1194;139845;-59
2021/10/30 17:09:19;;;;;;;21.70;9.70;;;;;;;17.49;41.66;98962.22;236455;1195;141935;-57
2021/10/30 17:14:22;;;;;;;18.60;9.20;;;;;;;17.02;42.07;98961.42;236301;1194;138798;-58
2021/10/30 17:19:25;;;;;;;30.60;15.60;;;;;;;16.57;42.56;98964.83;236298;1195;140161;-58
2021/10/30 17:24:29;;;;;;;25.90;11.30;;;;;;;16.19;43.01;98964.81;236103;1194;139926;-59
2021/10/30 17:29:32;;;;;;;29.50;12.20;;;;;;;15.86;43.46;98970.14;236315;1195;138744;-59
2021/10/30 17:34:37;;;;;;;28.00;11.80;;;;;;;15.57;43.73;98968.84;235845;1195;141750;-61
2021/10/30 17:39:41;;;;;;;32.60;15.50;;;;;;;15.24;44.25;98976.02;235749;1195;140479;-57
2021/10/30 17:44:44;;;;;;;246.60;173.90;;;;;;;14.99;44.55;98977.14;235996;1195;140268;-58
2021/10/30 17:49:48;;;;;;;42.20;23.50;;;;;;;14.84;45.09;98979.95;236221;1195;140147;-57
2021/10/30 17:54:50;;;;;;;31.80;18.50;;;;;;;14.64;45.30;98982.96;236157;1195;138778;-58
2021/10/30 17:59:54;;;;;;;39.60;20.30;;;;;;;14.44;45.49;98982.24;236295;1195;138972;-58
2021/10/30 18:04:57;;;;;;;43.70;19.70;;;;;;;14.23;45.75;98975.63;235791;1195;139078;-58
2021/10/30 18:10:00;;;;;;;42.70;21.00;;;;;;;14.08;45.98;98975.58;235708;1195;139774;-58
2021/10/30 18:15:04;;;;;;;49.00;24.50;;;;;;;13.98;46.14;98973.71;236094;1195;139670;-58
2021/10/30 18:20:09;;;;;;;46.20;24.70;;;;;;;13.94;46.43;98974.01;236108;1195;139243;-59
2021/10/30 18:25:14;;;;;;;51.20;23.30;;;;;;;13.89;46.54;98973.84;235658;1195;139678;-58
2021/10/30 18:30:17;;;;;;;46.90;23.30;;;;;;;13.79;46.62;98970.52;235711;1195;139491;-57
2021/10/30 18:35:20;;;;;;;41.60;20.60;;;;;;;13.73;46.89;98981.27;235389;1196;139619;-58
2021/10/30 18:40:24;;;;;;;33.80;18.20;;;;;;;13.71;47.06;98977.33;236270;1194;139561;-59
2021/10/30 18:45:28;;;;;;;38.50;19.00;;;;;;;13.76;47.06;98984.11;236320;1195;139497;-57
2021/10/30 18:50:31;;;;;;;74.50;47.40;;;;;;;13.81;47.20;98980.84;235908;1195;139824;-59
2021/10/30 18:55:34;;;;;;;38.60;20.30;;;;;;;13.91;47.26;98982.39;236027;1195;140190;-57
2021/10/30 19:00:39;;;;;;;40.80;18.70;;;;;;;13.92;46.92;98991.79;235955;1195;138654;-58
2021/10/30 19:05:43;;;;;;;36.40;19.00;;;;;;;13.82;46.82;98993.07;236359;1195;139054;-58
2021/10/30 19:10:47;;;;;;;40.00;18.70;;;;;;;13.69;46.90;98992.65;236301;1194;140374;-58
2021/10/30 19:15:53;;;;;;;42.10;19.70;;;;;;;13.55;46.91;98993.92;235908;1195;140742;-58
2021/10/30 19:20:56;;;;;;;36.30;19.00;;;;;;;13.45;47.29;98991.80;236014;1195;139600;-59
2021/10/30 19:26:00;;;;;;;41.30;20.00;;;;;;;13.41;47.42;98982.94;235986;1195;139790;-57
2021/10/30 19:31:03;;;;;;;43.70;21.50;;;;;;;13.39;47.28;98974.92;236321;1195;139413;-60
2021/10/30 19:36:08;;;;;;;399.70;268.10;;;;;;;13.42;47.48;98971.86;236280;1194;139932;-58
2021/10/30 19:41:13;;;;;;;42.10;23.20;;;;;;;13.55;47.55;98966.46;236298;1195;139720;-58
2021/10/30 19:46:16;;;;;;;35.30;18.80;;;;;;;13.68;47.52;98963.12;236299;1195;139487;-59
2021/10/30 19:51:20;;;;;;;30.00;13.90;;;;;;;13.78;47.18;98959.89;236301;1194;139917;-57
2021/10/30 19:56:24;;;;;;;29.10;14.10;;;;;;;13.97;46.69;98960.91;236133;1195;140460;-56
2021/10/30 20:01:28;;;;;;;25.50;13.20;;;;;;;14.13;46.35;98959.11;236081;1194;140325;-56
2021/10/30 20:06:33;;;;;;;32.20;16.80;;;;;;;14.21;46.22;98961.02;235922;1195;138788;-58
2021/10/30 20:11:41;;;;;;;68.40;40.90;;;;;;;14.16;46.32;98965.89;236315;1194;138763;-59
2021/10/30 20:16:46;;;;;;;44.00;22.20;;;;;;;14.11;46.45;98986.27;235941;1195;139162;-58
2021/10/30 20:21:52;;;;;;;42.40;22.00;;;;;;;13.88;46.44;98994.55;235830;1195;138844;-59
2021/10/30 20:26:57;;;;;;;45.30;22.90;;;;;;;13.64;46.49;98994.81;235645;1195;138823;-59
2021/10/30 20:32:00;;;;;;;40.20;21.60;;;;;;;13.39;46.73;98993.63;236238;1195;139340;-57
2021/10/30 20:37:05;;;;;;;41.30;22.00;;;;;;;13.15;47.01;98991.14;235755;1195;140209;-56
2021/10/30 20:42:11;;;;;;;39.10;22.00;;;;;;;12.90;47.32;98982.80;236181;1195;139489;-59
2021/10/30 20:47:15;;;;;;;39.30;20.70;;;;;;;12.65;47.54;98994.55;236384;1194;139239;-56
2021/10/30 20:52:20;;;;;;;285.20;229.00;;;;;;;12.47;48.17;98998.88;235840;1195;138979;-58
2021/10/30 20:57:24;;;;;;;42.00;23.70;;;;;;;12.52;48.80;99001.34;236180;1195;139767;-59
2021/10/30 21:02:28;;;;;;;38.40;21.20;;;;;;;12.38;48.56;99002.15;235626;1196;138885;-59
2021/10/30 21:07:31;;;;;;;35.00;20.10;;;;;;;12.13;48.60;99005.52;235973;1195;139257;-58
2021/10/30 21:12:34;;;;;;;39.60;20.20;;;;;;;11.92;48.82;99008.91;236324;1195;139161;-59
2021/10/30 21:17:37;;;;;;;34.40;18.40;;;;;;;11.78;48.88;99004.88;236314;1195;139330;-58
2021/10/30 21:22:40;;;;;;;39.30;19.30;;;;;;;11.73;49.30;99012.45;236119;1195;139552;-58
2021/10/30 21:27:43;;;;;;;40.20;19.60;;;;;;;11.68;49.27;99017.76;236381;1195;139342;-57
2021/10/30 21:32:47;;;;;;;37.20;18.30;;;;;;;11.59;49.71;99019.80;236249;1195;139478;-58
2021/10/30 21:37:50;;;;;;;34.80;17.80;;;;;;;11.51;49.73;99012.54;236380;1195;138921;-60
2021/10/30 21:42:53;;;;;;;39.60;18.60;;;;;;;11.44;49.52;99013.86;236302;1195;139504;-58
2021/10/30 21:47:56;;;;;;;32.80;17.30;;;;;;;11.37;50.08;99018.23;236195;1195;139753;-57
2021/10/30 21:52:59;;;;;;;30.20;17.00;;;;;;;11.31;50.07;99019.55;236202;1195;138778;-57
2021/10/30 21:58:03;;;;;;;30.10;16.70;;;;;;;11.22;50.26;99027.93;236202;1195;139239;-59
2021/10/30 22:03:06;;;;;;;29.30;16.10;;;;;;;11.13;50.43;99026.38;236351;1195;139211;-58
2021/10/30 22:08:10;;;;;;;29.10;17.40;;;;;;;11.10;50.69;99023.52;234865;1195;138647;-61
2021/10/30 22:13:14;;;;;;;32.50;16.40;;;;;;;11.05;50.89;99026.55;236272;1195;141706;-61
2021/10/30 22:18:19;;;;;;;32.10;15.80;;;;;;;10.98;50.78;99031.63;235983;1195;139692;-58
2021/10/30 22:23:22;;;;;;;26.00;15.00;;;;;;;10.89;50.92;99029.52;236274;1195;139569;-59
2021/10/30 22:28:28;;;;;;;28.80;16.40;;;;;;;10.79;51.26;99028.56;235705;1195;138721;-58
2021/10/30 22:33:31;;;;;;;32.70;16.00;;;;;;;10.67;51.31;99024.50;236134;1195;141645;-62
2021/10/30 22:38:34;;;;;;;26.50;15.00;;;;;;;10.56;51.32;99031.06;235783;1195;138774;-60
2021/10/30 22:43:38;;;;;;;25.50;15.20;;;;;;;10.49;51.49;99042.61;236462;1195;139218;-62
2021/10/30 22:48:40;;;;;;;26.80;14.30;;;;;;;10.46;51.56;99042.15;236196;1195;139021;-61
2021/10/30 22:53:44;;;;;;;25.70;14.20;;;;;;;10.38;51.64;99044.57;236371;1195;140258;-60
2021/10/30 22:58:47;;;;;;;25.60;14.50;;;;;;;10.29;51.75;99055.97;236265;1195;139469;-61